aviador You're here:

LFRN Decoded Metar

RENNES in FRANCE
Report Time2017-08-19 01:30:00
UTC Time2017-08-19 01:52:04
Flight Rules vfr VFR
Wind230° at 05 kt
W.Decomp.*RWY 28: 3.3 kt HW 3.7 kt LCW
RWY 32: 0.2 kt HW 5 kt LCW
W.Rank230° ranks 3
Current wind is below 230° avg. (7.4)
Visibility9999 m
Phenomena:N/A
Clouds:N/A
Expected CloudBase > 800 ft AGL from Temp-Dew spread
CeilingNone
Temp11°C (ISA -4)
Dew Point09°C (88% RH)
AAT9.0°C
QNH1021 hPa
Density Alt-443 ft
Elevation121 ft
Report Wrong Elevation
Raw Report
LFRN 190130Z AUTO 23005KT CAVOK 11/09 Q1021 NOSIG=

Extra information for LFRN:More info

Metar Taf Metar & Taf Last 4 Metars F.Rules Stats Wind Profile Meteogram Temp Stats Airport Information Weather charts Add Link Nearby VenuesMetar ALERT Operation Metar Decoded Social comments